createdAt,value
2017-12-31T00:02:37.182Z,9.60
2017-12-31T00:17:35.098Z,18.23
2017-12-31T00:32:35.092Z,21.13
2017-12-31T00:47:34.994Z,21.87
2017-12-31T01:02:34.456Z,21.10
2017-12-31T01:17:38.731Z,19.90
2017-12-31T01:32:35.651Z,20.17
2017-12-31T01:47:38.159Z,19.87
2017-12-31T02:02:34.618Z,20.80
2017-12-31T02:17:34.559Z,17.53
2017-12-31T02:32:34.576Z,16.13
2017-12-31T02:47:34.024Z,26.57
2017-12-31T03:02:34.850Z,23.80
2017-12-31T03:17:34.911Z,21.03
2017-12-31T03:32:36.744Z,20.57
2017-12-31T03:47:34.297Z,20.40
2017-12-31T04:02:35.106Z,21.77
2017-12-31T04:17:35.016Z,21.03
2017-12-31T04:32:34.958Z,18.93
2017-12-31T04:47:36.963Z,22.57
2017-12-31T05:02:37.074Z,22.53
2017-12-31T05:17:36.739Z,23.80
2017-12-31T05:32:35.252Z,21.87
2017-12-31T05:47:35.160Z,18.23
2017-12-31T06:02:34.487Z,17.57
2017-12-31T06:17:34.431Z,18.40
2017-12-31T06:32:34.682Z,19.23
2017-12-31T06:47:34.391Z,19.47
2017-12-31T07:02:34.726Z,19.10
2017-12-31T07:17:34.174Z,19.33
2017-12-31T07:32:36.654Z,21.93
2017-12-31T07:47:35.870Z,24.20
2017-12-31T08:02:36.288Z,23.37
2017-12-31T08:17:34.955Z,20.73
2017-12-31T08:32:34.874Z,17.67
2017-12-31T08:47:35.332Z,17.47
2017-12-31T09:02:38.263Z,17.53
2017-12-31T09:17:35.082Z,19.23
2017-12-31T09:32:35.125Z,17.23
2017-12-31T09:47:35.114Z,16.70
2017-12-31T10:02:35.045Z,15.00
2017-12-31T10:17:34.614Z,15.80
2017-12-31T10:32:36.049Z,17.23
2017-12-31T10:47:34.528Z,14.90
2017-12-31T11:02:34.028Z,14.83
2017-12-31T11:17:35.100Z,16.40
2017-12-31T11:32:34.274Z,18.83
2017-12-31T11:47:34.290Z,15.90
2017-12-31T12:02:34.246Z,17.43
2017-12-31T12:17:40.336Z,18.90
2017-12-31T12:32:34.233Z,18.27
2017-12-31T12:47:34.229Z,18.10
2017-12-31T13:02:35.224Z,29.70
2017-12-31T13:17:34.283Z,19.50
2017-12-31T13:32:34.505Z,21.77
2017-12-31T13:47:35.182Z,22.53
2017-12-31T14:02:34.383Z,23.63
2017-12-31T14:17:34.739Z,23.37
2017-12-31T14:32:36.671Z,20.70
2017-12-31T14:47:34.639Z,19.60
2017-12-31T15:02:34.618Z,19.97
2017-12-31T15:17:34.319Z,26.40
2017-12-31T15:32:36.197Z,26.30
2017-12-31T15:47:34.186Z,37.10
2017-12-31T16:02:35.135Z,33.67
2017-12-31T16:17:33.497Z,30.17
2017-12-31T16:32:33.425Z,34.07
2017-12-31T16:47:34.958Z,46.97
2017-12-31T17:02:34.392Z,45.00
2017-12-31T17:17:33.727Z,57.20
2017-12-31T17:32:33.783Z,57.67
2017-12-31T17:47:36.142Z,62.73
2017-12-31T18:02:33.684Z,44.60
2017-12-31T18:17:34.122Z,42.00
2017-12-31T18:32:35.976Z,43.07
2017-12-31T18:47:33.962Z,60.30
2017-12-31T19:02:33.338Z,103.77
2017-12-31T19:17:35.225Z,147.83
2017-12-31T19:32:33.303Z,161.10
2017-12-31T19:47:34.807Z,147.63
2017-12-31T20:02:33.975Z,71.30
2017-12-31T20:17:35.547Z,58.73
2017-12-31T20:32:35.401Z,59.00
2017-12-31T20:47:36.864Z,56.90
2017-12-31T21:02:35.069Z,72.27
2017-12-31T21:17:35.934Z,94.17
2017-12-31T21:32:33.868Z,77.70
2017-12-31T21:47:36.295Z,47.90
2017-12-31T22:02:34.763Z,42.83
2017-12-31T22:17:36.231Z,42.83
2017-12-31T22:32:36.773Z,92.47
2017-12-31T22:47:34.534Z,57.20
2017-12-31T23:02:34.557Z,108.43
2017-12-31T23:17:38.332Z,146.20
2017-12-31T23:32:41.848Z,95.07
2017-12-31T23:47:37.890Z,138.23
